Time;durP1;ratioP1;P1;durP2;ratioP2;P2;SDS_P1;SDS_P2;PMS_P1;PMS_P2;Temp;Humidity;BMP_temperature;BMP_pressure;BME280_temperature;BME280_humidity;BME280_pressure;Samples;Min_cycle;Max_cycle;Signal;HPM_P1;HPM_P2
2021/11/11 00:02:24;;;;;;;24.88;16.38;;;4.30;80.00;;;;;;5080398;28;20107;-81
2021/11/11 00:04:51;;;;;;;23.42;15.23;;;4.20;80.00;;;;;;5080215;28;20056;-81
2021/11/11 00:07:16;;;;;;;22.83;14.73;;;4.20;80.00;;;;;;5079877;28;20036;-81
2021/11/11 00:09:42;;;;;;;23.52;13.75;;;4.20;80.20;;;;;;5079995;28;20361;-81
2021/11/11 00:12:08;;;;;;;24.48;14.13;;;4.20;80.10;;;;;;5079524;28;20031;-82
2021/11/11 00:14:34;;;;;;;20.45;14.07;;;4.10;80.00;;;;;;5080025;28;20031;-81
2021/11/11 00:17:01;;;;;;;21.73;14.15;;;4.10;80.00;;;;;;5078753;28;20029;-81
2021/11/11 00:19:26;;;;;;;26.00;14.27;;;4.10;80.10;;;;;;5079931;28;20021;-81
2021/11/11 00:21:52;;;;;;;25.60;14.50;;;4.10;80.10;;;;;;5079772;28;20036;-81
2021/11/11 00:24:18;;;;;;;22.27;13.68;;;4.10;80.20;;;;;;5079703;28;20020;-81
2021/11/11 00:26:45;;;;;;;24.25;14.93;;;4.00;80.10;;;;;;5078885;28;20020;-82
2021/11/11 00:29:11;;;;;;;25.83;15.10;;;4.00;80.20;;;;;;5079618;28;20056;-81
2021/11/11 00:31:37;;;;;;;26.10;15.45;;;4.00;80.10;;;;;;5079662;28;20024;-81
2021/11/11 00:34:03;;;;;;;24.30;16.27;;;4.00;80.20;;;;;;5079500;28;20039;-81
2021/11/11 00:36:29;;;;;;;27.70;15.23;;;3.90;80.20;;;;;;5079346;28;20102;-82
2021/11/11 00:38:55;;;;;;;24.75;15.32;;;3.90;80.30;;;;;;5079460;28;20024;-81
2021/11/11 00:41:21;;;;;;;22.55;14.95;;;3.90;80.20;;;;;;5079183;28;20028;-81
2021/11/11 00:43:47;;;;;;;22.75;14.18;;;3.80;80.20;;;;;;5079436;28;20016;-81
2021/11/11 00:46:13;;;;;;;26.23;16.25;;;3.80;80.30;;;;;;5079315;28;20124;-82
2021/11/11 00:48:39;;;;;;;29.83;16.70;;;3.80;80.30;;;;;;5079533;28;21010;-82
2021/11/11 00:51:05;;;;;;;43.72;21.35;;;3.80;80.30;;;;;;5065805;28;20025;-81
2021/11/11 00:53:31;;;;;;;68.32;26.80;;;3.70;80.30;;;;;;5079239;28;20029;-82
2021/11/11 00:55:57;;;;;;;70.47;26.23;;;3.80;80.40;;;;;;5078844;28;20107;-82
2021/11/11 00:58:22;;;;;;;77.10;29.45;;;3.80;80.50;;;;;;5079230;28;20059;-82
2021/11/11 01:00:48;;;;;;;76.35;30.65;;;3.70;80.50;;;;;;5079002;28;20021;-81
2021/11/11 01:03:16;;;;;;;67.63;25.23;;;3.70;80.50;;;;;;5079129;28;20032;-81
2021/11/11 01:05:42;;;;;;;67.15;27.33;;;3.70;80.60;;;;;;5078734;28;20047;-81
2021/11/11 01:08:08;;;;;;;62.50;24.48;;;3.70;80.60;;;;;;5077651;28;20498;-81
2021/11/11 01:10:34;;;;;;;48.20;20.90;;;3.70;80.60;;;;;;5078612;28;20023;-81
2021/11/11 01:13:00;;;;;;;44.83;19.98;;;3.70;80.60;;;;;;5078575;28;20380;-81
2021/11/11 01:15:29;;;;;;;40.72;20.73;;;3.70;80.50;;;;;;5078667;28;20028;-81
2021/11/11 01:17:56;;;;;;;41.65;18.58;;;3.70;80.30;;;;;;5078898;28;20028;-81
2021/11/11 01:20:22;;;;;;;32.85;18.05;;;3.70;80.50;;;;;;5078560;28;20017;-81
2021/11/11 01:22:51;;;;;;;35.97;18.75;;;3.70;80.50;;;;;;5078765;28;20025;-81
2021/11/11 01:25:20;;;;;;;29.38;17.33;;;3.70;80.50;;;;;;5078279;28;20079;-81
2021/11/11 01:27:47;;;;;;;26.83;17.45;;;3.70;80.60;;;;;;5077843;28;20098;-81
2021/11/11 01:30:15;;;;;;;26.92;16.40;;;3.60;80.50;;;;;;5078235;28;20024;-81
2021/11/11 01:32:41;;;;;;;24.83;15.98;;;3.70;81.30;;;;;;5078503;28;20067;-81
2021/11/11 01:35:08;;;;;;;27.42;15.32;;;3.70;82.10;;;;;;5078249;28;20024;-81
2021/11/11 01:37:36;;;;;;;24.95;13.23;;;3.70;81.60;;;;;;5078293;28;20051;-81
2021/11/11 01:40:04;;;;;;;22.55;13.80;;;3.70;81.30;;;;;;5078188;28;20063;-81
2021/11/11 01:42:40;;;;;;;24.08;14.77;;;3.60;81.00;;;;;;5077874;28;20013;-81
2021/11/11 01:45:07;;;;;;;25.58;14.43;;;3.70;81.80;;;;;;5076837;28;20074;-81
2021/11/11 01:47:33;;;;;;;25.90;14.80;;;3.70;83.70;;;;;;5078202;28;20047;-81
2021/11/11 01:49:59;;;;;;;23.90;13.98;;;3.80;85.30;;;;;;5072098;28;20017;-81
2021/11/11 01:52:25;;;;;;;23.30;14.43;;;3.80;83.90;;;;;;5070597;28;20095;-81
2021/11/11 01:54:51;;;;;;;22.05;13.63;;;3.80;84.00;;;;;;5077781;28;20027;-80
2021/11/11 01:57:17;;;;;;;22.00;14.30;;;3.80;84.40;;;;;;5077761;28;20025;-81
2021/11/11 01:59:43;;;;;;;19.20;12.98;;;3.80;83.50;;;;;;5077838;28;20514;-81
2021/11/11 02:02:09;;;;;;;21.85;13.85;;;3.80;82.80;;;;;;5078090;28;20052;-80
2021/11/11 02:04:35;;;;;;;19.10;11.52;;;3.80;82.50;;;;;;5077799;28;20099;-80
2021/11/11 02:07:01;;;;;;;19.73;13.10;;;3.90;82.60;;;;;;5077797;28;20028;-80
2021/11/11 02:09:27;;;;;;;22.13;13.52;;;3.90;82.60;;;;;;5076216;28;20078;-80
2021/11/11 02:11:53;;;;;;;19.33;12.80;;;3.90;82.50;;;;;;5077421;28;20016;-80
2021/11/11 02:14:18;;;;;;;19.42;12.02;;;3.90;82.40;;;;;;5077712;28;20027;-80
2021/11/11 02:16:44;;;;;;;18.40;12.00;;;3.90;82.30;;;;;;5077613;28;20025;-80
2021/11/11 02:19:10;;;;;;;17.23;12.23;;;3.90;82.20;;;;;;5077817;28;20104;-80
2021/11/11 02:21:38;;;;;;;22.13;12.15;;;3.90;82.30;;;;;;5077543;28;20027;-80
2021/11/11 02:24:05;;;;;;;19.27;11.90;;;3.90;82.60;;;;;;5077590;28;20149;-81
2021/11/11 02:26:31;;;;;;;20.60;11.38;;;3.90;82.60;;;;;;5076233;28;20024;-81
2021/11/11 02:28:59;;;;;;;21.48;12.00;;;3.90;82.20;;;;;;5077498;28;20017;-80
2021/11/11 02:31:25;;;;;;;18.58;11.77;;;3.90;82.30;;;;;;5076098;28;20017;-80
2021/11/11 02:33:53;;;;;;;18.23;12.38;;;3.90;82.30;;;;;;5077527;28;20028;-80
2021/11/11 02:36:19;;;;;;;22.45;12.35;;;3.90;82.40;;;;;;5077239;28;20048;-80
2021/11/11 02:38:45;;;;;;;24.75;14.57;;;3.80;82.30;;;;;;5077530;28;20506;-80
2021/11/11 02:41:10;;;;;;;19.77;12.43;;;3.80;82.30;;;;;;5075689;28;20121;-81
2021/11/11 02:43:37;;;;;;;19.30;12.13;;;3.80;82.40;;;;;;5077444;28;20089;-81
2021/11/11 02:46:03;;;;;;;20.75;12.98;;;3.80;82.40;;;;;;5077336;28;20074;-81
2021/11/11 02:48:29;;;;;;;18.23;12.63;;;3.70;82.30;;;;;;5077494;28;20413;-80
2021/11/11 02:50:55;;;;;;;16.67;12.15;;;3.70;82.50;;;;;;5063480;28;20048;-81
2021/11/11 02:53:22;;;;;;;20.50;12.35;;;3.70;82.40;;;;;;5077254;28;20374;-81
2021/11/11 02:55:49;;;;;;;22.73;13.23;;;3.70;82.50;;;;;;5076924;28;20020;-81
2021/11/11 02:58:16;;;;;;;22.75;12.00;;;3.70;82.70;;;;;;5077412;28;20540;-81
2021/11/11 03:00:45;;;;;;;18.33;12.32;;;3.60;82.50;;;;;;5077147;28;20013;-81
2021/11/11 03:03:11;;;;;;;22.75;14.13;;;3.60;82.50;;;;;;5077297;28;20032;-80
2021/11/11 03:05:38;;;;;;;23.58;13.60;;;3.50;82.40;;;;;;5077057;28;20029;-81
2021/11/11 03:08:04;;;;;;;21.25;12.10;;;3.50;82.30;;;;;;5077419;28;20025;-81
2021/11/11 03:10:32;;;;;;;20.70;12.80;;;3.40;82.20;;;;;;5076888;28;20828;-81
2021/11/11 03:13:00;;;;;;;18.55;12.05;;;3.40;82.30;;;;;;5076974;28;20462;-81
2021/11/11 03:15:29;;;;;;;18.23;11.95;;;3.40;82.10;;;;;;5076868;28;20479;-80
2021/11/11 03:17:56;;;;;;;20.30;12.13;;;3.40;82.10;;;;;;5077427;28;20116;-81
2021/11/11 03:20:22;;;;;;;17.58;11.50;;;3.30;82.00;;;;;;5075600;28;20368;-81
2021/11/11 03:22:48;;;;;;;19.52;11.48;;;3.30;82.10;;;;;;5077108;28;20077;-81
2021/11/11 03:25:18;;;;;;;17.75;12.18;;;3.20;82.00;;;;;;5076686;28;20017;-81
2021/11/11 03:27:44;;;;;;;21.95;13.32;;;3.20;82.10;;;;;;5076368;28;20024;-81
2021/11/11 03:30:14;;;;;;;20.13;12.27;;;3.20;82.10;;;;;;5076775;28;20017;-81
2021/11/11 03:32:41;;;;;;;21.67;12.98;;;3.10;82.10;;;;;;5076994;28;20023;-81
2021/11/11 03:35:08;;;;;;;17.58;11.40;;;3.10;82.10;;;;;;5076712;28;20029;-81
2021/11/11 03:37:35;;;;;;;16.98;11.35;;;3.10;82.20;;;;;;5077987;28;20036;-81
2021/11/11 03:40:02;;;;;;;17.08;12.20;;;3.00;82.30;;;;;;5080354;28;20086;-81
2021/11/11 03:42:28;;;;;;;19.70;11.82;;;3.00;82.20;;;;;;5080424;28;20020;-81
2021/11/11 03:44:53;;;;;;;21.55;12.27;;;2.90;82.10;;;;;;5080335;28;20013;-81
2021/11/11 03:47:19;;;;;;;26.70;15.50;;;3.00;82.20;;;;;;5080497;28;20499;-81
2021/11/11 03:49:45;;;;;;;25.65;15.60;;;2.90;82.20;;;;;;5076182;28;20512;-81
2021/11/11 03:52:12;;;;;;;27.65;15.18;;;2.90;82.10;;;;;;5071177;28;20023;-81
2021/11/11 03:54:38;;;;;;;26.88;15.88;;;2.80;82.00;;;;;;5078831;28;20024;-81
2021/11/11 03:57:04;;;;;;;25.05;13.93;;;2.80;82.00;;;;;;5080173;28;20028;-81
2021/11/11 03:59:30;;;;;;;21.90;12.82;;;2.80;82.10;;;;;;5078819;28;20395;-81
2021/11/11 04:01:57;;;;;;;23.45;13.27;;;2.80;82.00;;;;;;5080298;28;20050;-81
2021/11/11 04:04:23;;;;;;;19.15;11.93;;;2.80;82.00;;;;;;5080081;28;20036;-80
2021/11/11 04:06:49;;;;;;;21.33;13.10;;;2.70;82.00;;;;;;5080091;28;20043;-81
2021/11/11 04:09:15;;;;;;;23.67;13.13;;;2.70;81.90;;;;;;5079832;28;20056;-81
2021/11/11 04:11:41;;;;;;;19.92;12.27;;;2.70;82.00;;;;;;5079842;28;20100;-81
2021/11/11 04:14:07;;;;;;;20.63;12.38;;;2.70;82.10;;;;;;5079961;28;20027;-81
2021/11/11 04:16:33;;;;;;;19.73;12.73;;;2.70;82.20;;;;;;5080081;28;20027;-81
2021/11/11 04:19:00;;;;;;;27.38;14.10;;;2.70;82.10;;;;;;5079768;28;20396;-81
2021/11/11 04:21:26;;;;;;;23.63;12.35;;;2.60;82.20;;;;;;5080001;28;20024;-81
2021/11/11 04:23:53;;;;;;;18.33;12.13;;;2.60;82.10;;;;;;5079621;28;20494;-81
2021/11/11 04:26:23;;;;;;;20.50;11.95;;;2.60;82.10;;;;;;5079202;28;20025;-81
2021/11/11 04:28:58;;;;;;;18.48;11.57;;;2.60;82.10;;;;;;5079735;28;20016;-81
2021/11/11 04:31:29;;;;;;;17.05;11.35;;;2.60;82.10;;;;;;5079596;28;20017;-82
2021/11/11 04:34:00;;;;;;;18.27;11.80;;;2.70;82.10;;;;;;5079642;28;20054;-81
2021/11/11 04:42:30;;;;;;;24.67;14.23;;;2.70;82.10;;;;;;5070457;28;20044;-81
2021/11/11 04:45:24;;;;;;;17.92;12.00;;;2.70;82.10;;;;;;5066325;28;20412;-81
2021/11/11 05:03:19;;;;;;;20.95;14.00;;;2.70;82.60;;;;;;5079103;28;20012;-81
2021/11/11 05:05:45;;;;;;;21.52;13.55;;;2.70;82.80;;;;;;5078913;28;20078;-81
2021/11/11 05:08:11;;;;;;;20.88;13.20;;;2.70;82.90;;;;;;5079038;28;20020;-81
2021/11/11 05:10:38;;;;;;;17.38;12.68;;;2.70;82.80;;;;;;5078596;28;20055;-81
2021/11/11 05:13:04;;;;;;;22.42;15.48;;;2.70;82.80;;;;;;5078989;28;20403;-81
2021/11/11 05:15:30;;;;;;;17.38;12.57;;;2.70;82.80;;;;;;5078725;28;20094;-80
2021/11/11 05:17:56;;;;;;;16.98;12.77;;;2.70;82.90;;;;;;5079397;28;20017;-81
2021/11/11 05:20:22;;;;;;;20.30;13.48;;;2.70;82.90;;;;;;5077320;28;20036;-80
2021/11/11 05:22:49;;;;;;;20.13;13.00;;;2.70;83.00;;;;;;5078802;28;20025;-81
2021/11/11 05:25:15;;;;;;;19.50;12.57;;;2.70;83.20;;;;;;5077040;28;20490;-81
2021/11/11 05:27:44;;;;;;;19.65;12.70;;;2.70;83.00;;;;;;5077880;28;20040;-81
2021/11/11 05:30:12;;;;;;;17.10;11.68;;;2.70;83.10;;;;;;5078375;28;20029;-81
2021/11/11 05:32:38;;;;;;;17.58;11.70;;;2.70;83.30;;;;;;5078433;28;20099;-83
2021/11/11 05:35:07;;;;;;;18.27;11.82;;;2.70;83.90;;;;;;5078333;28;20086;-80
2021/11/11 05:37:33;;;;;;;18.27;11.65;;;2.70;83.40;;;;;;5078174;28;20049;-80
2021/11/11 05:39:59;;;;;;;18.15;12.73;;;2.80;83.60;;;;;;5078087;28;20402;-80
2021/11/11 05:42:25;;;;;;;18.58;11.45;;;2.80;83.50;;;;;;5078049;28;20498;-80
2021/11/11 05:44:51;;;;;;;16.80;11.20;;;2.70;83.60;;;;;;5078086;28;20029;-80
2021/11/11 05:47:17;;;;;;;17.73;11.25;;;2.70;83.60;;;;;;5078143;28;20040;-80
2021/11/11 05:49:43;;;;;;;18.88;11.32;;;2.70;83.50;;;;;;5074041;28;20013;-80
2021/11/11 05:52:09;;;;;;;19.20;11.65;;;2.80;83.40;;;;;;5068721;28;20499;-79
2021/11/11 05:54:37;;;;;;;16.40;11.85;;;2.80;83.30;;;;;;5077836;28;20438;-80
2021/11/11 05:57:07;;;;;;;19.17;12.25;;;2.80;83.40;;;;;;5077805;28;20456;-80
2021/11/11 05:59:33;;;;;;;19.73;11.63;;;2.80;83.50;;;;;;5077298;28;20021;-80
2021/11/11 06:02:00;;;;;;;18.38;12.68;;;2.80;83.40;;;;;;5076373;28;20032;-80
2021/11/11 06:04:26;;;;;;;19.50;13.65;;;2.80;83.40;;;;;;5076691;28;20085;-80
2021/11/11 06:06:52;;;;;;;18.30;12.43;;;2.80;83.40;;;;;;5077888;28;20027;-80
2021/11/11 06:09:18;;;;;;;20.88;13.68;;;2.80;83.40;;;;;;5077527;28;20948;-80
2021/11/11 06:11:44;;;;;;;21.42;13.38;;;2.80;83.20;;;;;;5077686;28;20032;-80
2021/11/11 06:14:10;;;;;;;20.33;13.25;;;2.80;83.20;;;;;;5077669;28;20031;-79
2021/11/11 06:16:35;;;;;;;22.75;13.70;;;2.80;83.20;;;;;;5077823;28;20487;-80
2021/11/11 06:19:02;;;;;;;20.02;12.60;;;2.80;83.30;;;;;;5077491;28;20029;-80
2021/11/11 06:21:28;;;;;;;20.33;13.02;;;2.80;83.30;;;;;;5077927;28;20059;-80
2021/11/11 06:23:54;;;;;;;21.58;12.73;;;2.80;83.10;;;;;;5076119;28;20191;-80
2021/11/11 06:26:21;;;;;;;18.98;12.15;;;2.80;82.90;;;;;;5076947;28;20029;-80
2021/11/11 06:28:47;;;;;;;19.20;12.82;;;2.80;82.80;;;;;;5077444;28;20024;-80
2021/11/11 06:31:14;;;;;;;20.38;12.80;;;2.80;82.90;;;;;;5077563;28;20023;-80
2021/11/11 06:33:40;;;;;;;19.25;12.38;;;2.80;82.90;;;;;;5074071;28;20020;-80
2021/11/11 06:36:06;;;;;;;17.75;11.20;;;2.80;82.90;;;;;;5077490;28;20044;-80
2021/11/11 06:38:32;;;;;;;17.15;11.07;;;2.90;82.90;;;;;;5077682;28;20483;-80
2021/11/11 06:40:58;;;;;;;17.60;11.15;;;2.90;82.80;;;;;;5076922;28;20035;-80
2021/11/11 06:43:23;;;;;;;16.17;11.38;;;2.90;82.80;;;;;;5077444;28;20021;-80
2021/11/11 06:45:49;;;;;;;18.55;11.15;;;2.90;82.90;;;;;;5075902;28;20025;-80
2021/11/11 06:48:16;;;;;;;19.58;11.68;;;2.90;83.00;;;;;;5077554;28;20028;-80
2021/11/11 06:50:43;;;;;;;18.40;11.50;;;2.90;82.90;;;;;;5065474;28;20017;-80
2021/11/11 06:53:11;;;;;;;17.90;10.95;;;2.80;82.70;;;;;;5075736;28;20024;-81
2021/11/11 06:55:39;;;;;;;17.45;11.38;;;2.90;82.70;;;;;;5076921;28;20388;-81
2021/11/11 06:58:05;;;;;;;16.27;11.20;;;2.90;82.80;;;;;;5077093;28;20048;-80
2021/11/11 07:00:32;;;;;;;17.40;11.30;;;2.90;83.00;;;;;;5077364;28;20020;-80
2021/11/11 07:02:58;;;;;;;16.70;11.25;;;2.80;82.90;;;;;;5077120;28;20755;-80
2021/11/11 07:05:24;;;;;;;17.90;11.57;;;2.90;83.00;;;;;;5077221;28;20056;-80
2021/11/11 07:07:50;;;;;;;15.90;11.02;;;2.90;83.10;;;;;;5077111;28;20103;-80
2021/11/11 07:10:16;;;;;;;17.55;11.43;;;2.90;83.30;;;;;;5075518;28;20024;-80
2021/11/11 07:12:44;;;;;;;17.77;11.15;;;2.80;83.50;;;;;;5080130;28;20059;-80
2021/11/11 07:15:12;;;;;;;16.00;11.13;;;2.80;83.50;;;;;;5081078;28;20047;-81
2021/11/11 07:17:38;;;;;;;18.70;11.50;;;2.80;83.50;;;;;;5081157;28;20391;-80
2021/11/11 07:20:09;;;;;;;18.08;11.88;;;2.80;83.60;;;;;;5081144;28;20483;-80
2021/11/11 07:22:37;;;;;;;18.25;11.05;;;2.90;83.70;;;;;;5081120;28;20110;-80
2021/11/11 07:25:04;;;;;;;19.83;11.90;;;2.90;83.90;;;;;;5080903;28;20047;-80
2021/11/11 07:27:30;;;;;;;17.83;11.32;;;2.90;83.70;;;;;;5080185;28;20067;-81
2021/11/11 07:29:56;;;;;;;17.80;11.18;;;2.90;83.80;;;;;;5079354;28;20096;-80
2021/11/11 07:32:22;;;;;;;17.33;11.73;;;2.90;83.80;;;;;;5080908;28;20021;-80
2021/11/11 07:34:47;;;;;;;18.67;12.20;;;2.90;83.90;;;;;;5080639;28;20019;-80
2021/11/11 07:37:13;;;;;;;18.58;12.52;;;3.00;84.10;;;;;;5080568;28;20052;-81
2021/11/11 07:39:39;;;;;;;18.35;12.55;;;3.00;84.10;;;;;;5080435;28;20474;-80
2021/11/11 07:42:05;;;;;;;14.52;10.43;;;3.00;83.90;;;;;;5080429;28;20028;-80
2021/11/11 07:44:31;;;;;;;18.30;11.10;;;3.10;83.90;;;;;;5079132;28;20035;-80
2021/11/11 07:46:56;;;;;;;17.15;12.05;;;3.10;83.90;;;;;;5080569;28;20082;-80
2021/11/11 07:49:22;;;;;;;16.55;11.82;;;3.20;84.10;;;;;;5079190;28;20059;-80
2021/11/11 07:51:48;;;;;;;15.20;11.15;;;3.20;84.20;;;;;;5068203;28;20077;-80
2021/11/11 07:54:14;;;;;;;18.08;12.40;;;3.20;84.30;;;;;;5080105;28;20024;-80
2021/11/11 07:56:42;;;;;;;17.25;11.82;;;3.20;84.20;;;;;;5080127;28;20090;-80
2021/11/11 07:59:08;;;;;;;18.65;13.07;;;3.30;84.20;;;;;;5080205;28;20082;-80
2021/11/11 08:01:34;;;;;;;18.27;12.55;;;3.30;84.40;;;;;;5079010;28;20035;-80
2021/11/11 08:04:00;;;;;;;16.45;12.05;;;3.30;84.70;;;;;;5080050;28;20033;-80
2021/11/11 08:06:26;;;;;;;16.58;11.80;;;3.40;85.00;;;;;;5080207;28;20024;-80
2021/11/11 08:08:52;;;;;;;16.83;12.25;;;3.40;85.10;;;;;;5079948;28;20021;-80
2021/11/11 08:11:18;;;;;;;20.20;12.98;;;3.40;84.90;;;;;;5079671;28;20024;-80
2021/11/11 08:13:44;;;;;;;17.08;12.60;;;3.50;84.90;;;;;;5079975;28;20032;-80
2021/11/11 08:16:10;;;;;;;16.15;12.50;;;3.50;84.90;;;;;;5080113;28;20084;-80
2021/11/11 08:18:36;;;;;;;16.38;12.13;;;3.50;84.80;;;;;;5079846;28;20032;-80
2021/11/11 08:21:02;;;;;;;17.55;12.93;;;3.60;84.70;;;;;;5080056;28;20376;-80
2021/11/11 08:23:28;;;;;;;16.20;12.13;;;3.60;84.70;;;;;;5078914;28;20048;-79
2021/11/11 08:25:54;;;;;;;16.90;11.90;;;3.70;84.60;;;;;;5078008;28;20056;-80
2021/11/11 08:28:21;;;;;;;18.80;13.15;;;3.70;84.70;;;;;;5079143;28;20044;-80
2021/11/11 08:30:49;;;;;;;17.83;13.00;;;3.70;84.80;;;;;;5079970;28;20016;-80
2021/11/11 08:33:15;;;;;;;16.85;12.82;;;3.80;84.90;;;;;;5079499;28;20025;-80
2021/11/11 08:35:43;;;;;;;17.83;13.05;;;3.80;84.80;;;;;;5079681;28;20029;-79
2021/11/11 08:38:10;;;;;;;19.33;13.38;;;3.90;84.90;;;;;;5079529;28;20493;-80
2021/11/11 08:40:36;;;;;;;17.95;13.60;;;4.00;84.90;;;;;;5079282;28;20434;-80
2021/11/11 08:43:02;;;;;;;21.83;14.80;;;4.10;84.80;;;;;;5079412;28;20033;-80
2021/11/11 08:45:29;;;;;;;23.27;16.35;;;4.10;84.80;;;;;;5079480;28;20029;-80
2021/11/11 08:47:55;;;;;;;27.98;18.25;;;4.20;84.80;;;;;;5079202;28;20021;-80
2021/11/11 08:50:24;;;;;;;35.25;19.65;;;4.30;84.90;;;;;;5070333;28;20021;-80
2021/11/11 08:52:54;;;;;;;33.38;20.70;;;4.40;84.80;;;;;;5075294;28;20772;-79
2021/11/11 08:55:23;;;;;;;30.50;19.08;;;4.50;84.90;;;;;;5079207;28;20020;-80
2021/11/11 08:57:50;;;;;;;26.40;17.73;;;4.50;84.90;;;;;;5078937;28;20031;-79
2021/11/11 09:00:19;;;;;;;26.75;17.80;;;4.60;84.90;;;;;;5079521;28;20028;-79
2021/11/11 09:02:47;;;;;;;25.13;16.88;;;4.70;84.70;;;;;;5079003;28;20032;-79
2021/11/11 09:05:13;;;;;;;23.33;15.68;;;4.80;84.80;;;;;;5079169;28;20021;-80
2021/11/11 09:07:40;;;;;;;22.40;16.27;;;4.80;84.70;;;;;;5078870;28;20033;-79
2021/11/11 09:10:11;;;;;;;26.77;17.58;;;4.80;84.70;;;;;;5078905;28;20150;-79
2021/11/11 09:12:37;;;;;;;24.33;16.77;;;4.90;84.70;;;;;;5078484;28;20479;-80
2021/11/11 09:15:08;;;;;;;25.92;18.38;;;5.00;84.80;;;;;;5078870;28;20032;-79
2021/11/11 09:17:35;;;;;;;35.47;22.15;;;5.10;84.80;;;;;;5065860;28;20364;-79
2021/11/11 09:20:01;;;;;;;34.80;19.55;;;5.20;85.00;;;;;;5078878;28;20055;-79
2021/11/11 09:22:27;;;;;;;30.52;19.23;;;5.20;84.90;;;;;;5077438;28;20025;-79
2021/11/11 09:24:54;;;;;;;23.23;17.30;;;5.40;85.00;;;;;;5078536;28;20024;-79
2021/11/11 09:27:21;;;;;;;20.50;15.18;;;5.50;84.90;;;;;;5077848;28;20029;-79
2021/11/11 09:29:47;;;;;;;22.02;15.23;;;5.50;84.80;;;;;;5077057;28;20115;-79
2021/11/11 09:32:12;;;;;;;21.30;15.27;;;5.60;84.60;;;;;;5078517;28;20059;-79
2021/11/11 09:34:38;;;;;;;22.27;14.82;;;5.70;84.60;;;;;;5078255;28;20100;-79
2021/11/11 09:37:04;;;;;;;20.35;14.70;;;5.70;84.60;;;;;;5078313;28;20049;-79
2021/11/11 09:39:30;;;;;;;23.08;15.35;;;5.80;84.80;;;;;;5078145;28;20028;-79
2021/11/11 09:41:59;;;;;;;21.10;15.13;;;5.80;84.80;;;;;;5078312;28;20024;-79
2021/11/11 09:44:25;;;;;;;21.02;14.68;;;5.90;84.90;;;;;;5078401;28;20028;-79
2021/11/11 09:46:52;;;;;;;23.35;16.45;;;6.00;85.00;;;;;;5078309;28;20021;-78
2021/11/11 09:49:20;;;;;;;23.73;17.00;;;6.20;85.20;;;;;;5077538;28;20012;-79
2021/11/11 09:51:48;;;;;;;24.67;16.40;;;6.30;85.70;;;;;;5080767;28;20463;-78
2021/11/11 09:59:29;;;;;;;30.02;18.30;;;6.60;85.10;;;;;;5078022;28;20078;-79
2021/11/11 10:01:56;;;;;;;25.25;17.95;;;6.70;85.00;;;;;;5078023;28;20463;-78
2021/11/11 10:04:22;;;;;;;24.10;17.20;;;6.70;85.10;;;;;;5077824;28;20047;-78
2021/11/11 10:06:48;;;;;;;23.73;17.13;;;6.80;85.10;;;;;;5077823;28;20064;-79
2021/11/11 10:09:20;;;;;;;25.25;16.63;;;6.90;85.40;;;;;;5076317;28;20094;-79
2021/11/11 10:11:52;;;;;;;21.52;16.10;;;7.10;85.70;;;;;;5077528;28;20494;-79
2021/11/11 10:14:32;;;;;;;20.85;15.25;;;7.30;85.70;;;;;;5077689;28;20019;-79
2021/11/11 10:17:11;;;;;;;23.65;17.45;;;7.40;85.40;;;;;;5077693;28;20047;-78
2021/11/11 10:19:40;;;;;;;28.73;19.35;;;7.60;86.10;;;;;;5078021;28;20025;-78
2021/11/11 10:22:13;;;;;;;37.30;21.05;;;7.70;85.00;;;;;;5077422;28;20052;-78
2021/11/11 10:24:56;;;;;;;24.77;17.80;;;7.80;84.80;;;;;;5077649;28;20103;-78
2021/11/11 10:27:37;;;;;;;24.50;16.48;;;7.80;84.50;;;;;;5070763;28;20025;-78
2021/11/11 10:30:06;;;;;;;21.38;15.55;;;7.90;84.50;;;;;;5077329;28;20047;-78
2021/11/11 10:32:44;;;;;;;21.17;14.48;;;8.00;84.80;;;;;;5076191;28;20024;-78
2021/11/11 10:35:13;;;;;;;20.65;14.68;;;8.20;84.70;;;;;;5077385;28;20044;-78
2021/11/11 10:37:42;;;;;;;22.65;15.85;;;8.20;84.30;;;;;;5077337;28;20048;-78
2021/11/11 10:40:15;;;;;;;21.15;15.98;;;8.30;84.50;;;;;;5077139;28;20024;-78
2021/11/11 10:42:44;;;;;;;24.73;17.67;;;8.50;84.30;;;;;;5077221;28;20028;-78
2021/11/11 10:45:20;;;;;;;25.95;17.80;;;8.70;84.70;;;;;;5077517;28;20078;-78
2021/11/11 10:47:49;;;;;;;23.30;15.82;;;9.10;85.20;;;;;;5075505;28;20033;-78
2021/11/11 10:50:22;;;;;;;22.38;16.52;;;9.50;84.70;;;;;;5069005;28;20028;-78
2021/11/11 10:52:50;;;;;;;21.83;16.40;;;9.80;84.50;;;;;;5073054;28;20076;-78
2021/11/11 10:55:18;;;;;;;25.73;17.25;;;10.30;84.70;;;;;;5077186;28;20106;-78
2021/11/11 10:57:49;;;;;;;21.85;16.60;;;10.70;84.30;;;;;;5077000;28;20063;-78
2021/11/11 11:00:34;;;;;;;25.42;16.90;;;11.10;83.70;;;;;;5077371;28;20029;-78
2021/11/11 11:03:19;;;;;;;23.73;16.48;;;11.50;83.50;;;;;;5064169;28;20539;-78
2021/11/11 11:05:53;;;;;;;22.75;16.60;;;11.90;83.00;;;;;;5077039;28;20020;-78
2021/11/11 11:08:32;;;;;;;20.02;16.40;;;12.20;82.20;;;;;;5077354;28;20833;-78
2021/11/11 11:11:06;;;;;;;26.23;18.65;;;12.60;81.50;;;;;;5076607;28;20052;-78
2021/11/11 11:13:34;;;;;;;25.50;17.42;;;12.90;81.10;;;;;;5077132;28;20048;-78
2021/11/11 11:16:06;;;;;;;21.95;16.38;;;13.30;80.80;;;;;;5077195;28;20050;-78
2021/11/11 11:18:43;;;;;;;20.85;17.08;;;13.70;80.10;;;;;;5077058;28;20051;-78
2021/11/11 11:21:13;;;;;;;20.50;15.35;;;13.90;78.90;;;;;;5077159;28;20422;-78
2021/11/11 11:23:50;;;;;;;24.05;17.15;;;14.20;77.90;;;;;;5076779;28;20055;-78
2021/11/11 11:26:25;;;;;;;21.83;16.45;;;14.40;77.50;;;;;;5076338;28;20020;-78
2021/11/11 11:32:06;;;;;;;23.20;15.93;;;14.80;76.00;;;;;;5076783;28;20081;-78
2021/11/11 11:34:34;;;;;;;22.88;16.45;;;15.10;75.60;;;;;;5076937;28;20027;-78
2021/11/11 11:37:06;;;;;;;22.05;16.38;;;15.20;75.20;;;;;;5076858;28;20135;-78
2021/11/11 11:39:40;;;;;;;22.60;16.10;;;15.40;75.00;;;;;;5076737;28;20487;-78
2021/11/11 11:42:14;;;;;;;23.35;17.13;;;15.60;74.40;;;;;;5076568;28;20033;-78
2021/11/11 11:44:44;;;;;;;24.75;17.63;;;15.70;74.20;;;;;;5076737;28;20024;-78
2021/11/11 11:49:47;;;;;;;23.73;17.48;;;15.80;72.80;;;;;;5073006;28;20027;-78
2021/11/11 11:52:13;;;;;;;25.75;18.05;;;15.80;72.40;;;;;;5067833;28;20096;-78
2021/11/11 11:54:54;;;;;;;26.25;18.73;;;15.90;71.70;;;;;;5076519;28;20032;-79
2021/11/11 11:59:53;;;;;;;27.13;17.98;;;15.90;70.50;;;;;;5079780;28;20071;-78
2021/11/11 12:07:51;;;;;;;27.10;18.90;;;16.00;69.90;;;;;;5080269;28;20036;-78
2021/11/11 12:10:29;;;;;;;29.67;20.38;;;16.00;70.30;;;;;;5079628;28;20106;-79
2021/11/11 12:13:20;;;;;;;29.27;19.52;;;15.90;69.00;;;;;;5080111;28;20031;-79
2021/11/11 12:16:18;;;;;;;29.23;20.40;;;15.80;68.80;;;;;;5064543;28;20020;-80
2021/11/11 12:40:07;;;;;;;28.27;19.92;;;15.50;69.00;;;;;;5079702;28;20108;-80
2021/11/11 12:42:35;;;;;;;32.20;21.23;;;15.60;69.60;;;;;;5078110;28;20387;-80
2021/11/11 12:45:25;;;;;;;29.33;21.08;;;15.70;69.10;;;;;;5066321;28;20471;-80
2021/11/11 12:48:20;;;;;;;30.25;21.48;;;15.70;68.10;;;;;;5079333;28;20029;-80
2021/11/11 12:50:48;;;;;;;32.85;21.75;;;15.80;67.50;;;;;;5066926;28;20032;-80
2021/11/11 12:53:13;;;;;;;29.80;21.27;;;15.80;68.00;;;;;;5078459;28;20080;-80
2021/11/11 12:56:07;;;;;;;34.60;22.15;;;15.90;68.40;;;;;;5079043;28;20491;-80
2021/11/11 12:58:57;;;;;;;35.67;21.63;;;15.90;67.80;;;;;;5068952;28;20025;-80
2021/11/11 13:01:22;;;;;;;35.83;22.27;;;15.90;68.10;;;;;;5065896;28;20103;-81
2021/11/11 13:03:57;;;;;;;34.35;21.48;;;15.90;67.20;;;;;;5079197;28;20097;-80
2021/11/11 13:06:35;;;;;;;32.35;23.30;;;16.00;67.60;;;;;;5078965;28;20078;-80
2021/11/11 13:09:21;;;;;;;39.20;23.73;;;16.00;68.10;;;;;;5078475;28;20024;-80
2021/11/11 13:11:53;;;;;;;36.28;22.98;;;16.00;66.50;;;;;;5078678;28;20032;-81
2021/11/11 13:14:30;;;;;;;38.60;23.52;;;15.90;67.60;;;;;;5066124;28;20017;-80
2021/11/11 13:16:56;;;;;;;39.13;25.05;;;15.80;67.30;;;;;;5077360;28;20024;-80
2021/11/11 13:19:46;;;;;;;37.08;26.05;;;15.80;67.60;;;;;;5078917;28;20031;-80
2021/11/11 13:22:22;;;;;;;39.10;26.27;;;15.80;67.60;;;;;;5078607;28;20103;-81
2021/11/11 16:01:27;;;;;;;29.48;19.98;;;11.80;74.00;;;;;;5080391;28;20560;-81
2021/11/11 16:20:24;;;;;;;31.35;20.33;;;11.40;74.70;;;;;;5080059;28;20031;-82
2021/11/11 16:23:03;;;;;;;28.05;20.30;;;11.20;74.60;;;;;;5080050;28;20414;-81
2021/11/11 16:25:42;;;;;;;32.83;21.17;;;11.20;74.80;;;;;;5079297;28;20016;-81
2021/11/11 16:28:08;;;;;;;33.28;21.10;;;11.10;74.80;;;;;;5079441;28;20044;-81
2021/11/11 16:30:34;;;;;;;28.70;19.90;;;11.00;75.00;;;;;;5079582;28;20028;-81
2021/11/11 16:33:00;;;;;;;31.48;20.25;;;10.90;75.00;;;;;;5079732;28;20032;-81
2021/11/11 16:35:26;;;;;;;30.15;21.33;;;10.80;75.10;;;;;;5079736;28;20021;-81
2021/11/11 16:37:52;;;;;;;29.63;20.08;;;10.80;75.20;;;;;;5079416;28;20047;-82